sensor_id;sensor_type;location;lat;lon;timestamp;P1;durP1;ratioP1;P2;durP2;ratioP2
6280;SDS011;3173;48.204;11.612;2023-08-01T00:01:33;5.73;;;2.80;;
6280;SDS011;3173;48.204;11.612;2023-08-01T00:03:59;4.77;;;2.43;;
6280;SDS011;3173;48.204;11.612;2023-08-01T00:06:25;4.40;;;2.40;;
6280;SDS011;3173;48.204;11.612;2023-08-01T00:08:51;6.67;;;2.50;;
6280;SDS011;3173;48.204;11.612;2023-08-01T00:11:17;6.20;;;2.50;;
6280;SDS011;3173;48.204;11.612;2023-08-01T00:13:43;5.90;;;2.50;;
6280;SDS011;3173;48.204;11.612;2023-08-01T00:16:09;4.33;;;1.80;;
6280;SDS011;3173;48.204;11.612;2023-08-01T00:18:36;5.47;;;2.30;;
6280;SDS011;3173;48.204;11.612;2023-08-01T00:21:02;8.07;;;3.20;;
6280;SDS011;3173;48.204;11.612;2023-08-01T00:23:30;5.67;;;2.17;;
6280;SDS011;3173;48.204;11.612;2023-08-01T00:25:56;3.00;;;1.90;;
6280;SDS011;3173;48.204;11.612;2023-08-01T00:28:22;5.40;;;2.77;;
6280;SDS011;3173;48.204;11.612;2023-08-01T00:30:48;3.10;;;2.10;;
6280;SDS011;3173;48.204;11.612;2023-08-01T00:33:15;11.17;;;2.77;;
6280;SDS011;3173;48.204;11.612;2023-08-01T00:35:41;6.40;;;2.30;;
6280;SDS011;3173;48.204;11.612;2023-08-01T00:38:07;7.10;;;2.33;;
6280;SDS011;3173;48.204;11.612;2023-08-01T00:40:33;4.50;;;2.10;;
6280;SDS011;3173;48.204;11.612;2023-08-01T00:43:00;3.63;;;2.10;;
6280;SDS011;3173;48.204;11.612;2023-08-01T00:45:26;4.07;;;2.00;;
6280;SDS011;3173;48.204;11.612;2023-08-01T00:47:53;4.93;;;2.33;;
6280;SDS011;3173;48.204;11.612;2023-08-01T00:50:19;4.67;;;2.80;;
6280;SDS011;3173;48.204;11.612;2023-08-01T00:52:49;4.03;;;2.60;;
6280;SDS011;3173;48.204;11.612;2023-08-01T00:55:16;3.23;;;2.10;;
6280;SDS011;3173;48.204;11.612;2023-08-01T00:57:42;6.17;;;2.80;;
6280;SDS011;3173;48.204;11.612;2023-08-01T01:00:09;4.00;;;2.20;;
6280;SDS011;3173;48.204;11.612;2023-08-01T01:02:36;4.17;;;2.70;;
6280;SDS011;3173;48.204;11.612;2023-08-01T01:05:02;4.80;;;2.47;;
6280;SDS011;3173;48.204;11.612;2023-08-01T01:07:29;5.80;;;2.63;;
6280;SDS011;3173;48.204;11.612;2023-08-01T01:09:55;4.40;;;2.77;;
6280;SDS011;3173;48.204;11.612;2023-08-01T01:12:21;5.50;;;2.80;;
6280;SDS011;3173;48.204;11.612;2023-08-01T01:14:47;3.97;;;2.30;;
6280;SDS011;3173;48.204;11.612;2023-08-01T01:17:14;6.23;;;2.77;;
6280;SDS011;3173;48.204;11.612;2023-08-01T01:19:40;5.87;;;2.43;;
6280;SDS011;3173;48.204;11.612;2023-08-01T01:22:06;5.20;;;2.60;;
6280;SDS011;3173;48.204;11.612;2023-08-01T01:24:33;4.70;;;2.33;;
6280;SDS011;3173;48.204;11.612;2023-08-01T01:27:00;4.30;;;2.73;;
6280;SDS011;3173;48.204;11.612;2023-08-01T01:29:28;5.10;;;2.63;;
6280;SDS011;3173;48.204;11.612;2023-08-01T01:31:55;5.93;;;2.30;;
6280;SDS011;3173;48.204;11.612;2023-08-01T01:34:21;6.20;;;2.77;;
6280;SDS011;3173;48.204;11.612;2023-08-01T01:36:47;9.63;;;2.63;;
6280;SDS011;3173;48.204;11.612;2023-08-01T01:39:13;4.63;;;2.80;;
6280;SDS011;3173;48.204;11.612;2023-08-01T01:41:40;4.87;;;2.27;;
6280;SDS011;3173;48.204;11.612;2023-08-01T01:44:06;6.40;;;2.60;;
6280;SDS011;3173;48.204;11.612;2023-08-01T01:46:32;4.10;;;2.57;;
6280;SDS011;3173;48.204;11.612;2023-08-01T01:48:58;4.70;;;2.27;;
6280;SDS011;3173;48.204;11.612;2023-08-01T01:51:25;4.70;;;2.70;;
6280;SDS011;3173;48.204;11.612;2023-08-01T01:53:51;3.77;;;2.43;;
6280;SDS011;3173;48.204;11.612;2023-08-01T01:56:18;4.50;;;2.17;;
6280;SDS011;3173;48.204;11.612;2023-08-01T01:58:44;6.70;;;2.90;;
6280;SDS011;3173;48.204;11.612;2023-08-01T02:01:10;7.53;;;3.13;;
6280;SDS011;3173;48.204;11.612;2023-08-01T02:03:36;4.50;;;2.73;;
6280;SDS011;3173;48.204;11.612;2023-08-01T02:06:02;4.27;;;2.50;;
6280;SDS011;3173;48.204;11.612;2023-08-01T02:08:29;5.37;;;2.53;;
6280;SDS011;3173;48.204;11.612;2023-08-01T02:10:55;6.90;;;2.80;;
6280;SDS011;3173;48.204;11.612;2023-08-01T02:13:26;4.67;;;3.07;;
6280;SDS011;3173;48.204;11.612;2023-08-01T02:15:52;4.53;;;2.50;;
6280;SDS011;3173;48.204;11.612;2023-08-01T02:18:19;3.80;;;2.50;;
6280;SDS011;3173;48.204;11.612;2023-08-01T02:20:45;4.77;;;2.43;;
6280;SDS011;3173;48.204;11.612;2023-08-01T02:23:11;4.73;;;2.40;;
6280;SDS011;3173;48.204;11.612;2023-08-01T02:25:40;4.17;;;2.43;;
6280;SDS011;3173;48.204;11.612;2023-08-01T02:28:07;4.97;;;2.67;;
6280;SDS011;3173;48.204;11.612;2023-08-01T02:30:34;7.57;;;2.90;;
6280;SDS011;3173;48.204;11.612;2023-08-01T02:33:00;5.83;;;2.93;;
6280;SDS011;3173;48.204;11.612;2023-08-01T02:35:26;4.50;;;2.40;;
6280;SDS011;3173;48.204;11.612;2023-08-01T02:37:53;5.53;;;2.70;;
6280;SDS011;3173;48.204;11.612;2023-08-01T02:40:19;3.40;;;2.33;;
6280;SDS011;3173;48.204;11.612;2023-08-01T02:42:45;4.77;;;2.97;;
6280;SDS011;3173;48.204;11.612;2023-08-01T02:45:11;5.27;;;2.83;;
6280;SDS011;3173;48.204;11.612;2023-08-01T02:47:38;3.47;;;2.23;;
6280;SDS011;3173;48.204;11.612;2023-08-01T02:50:04;5.80;;;2.87;;
6280;SDS011;3173;48.204;11.612;2023-08-01T02:52:30;4.80;;;3.20;;
6280;SDS011;3173;48.204;11.612;2023-08-01T02:54:57;6.60;;;3.63;;
6280;SDS011;3173;48.204;11.612;2023-08-01T02:57:23;6.67;;;3.10;;
6280;SDS011;3173;48.204;11.612;2023-08-01T02:59:49;5.70;;;2.73;;
6280;SDS011;3173;48.204;11.612;2023-08-01T03:02:15;7.97;;;3.17;;
6280;SDS011;3173;48.204;11.612;2023-08-01T03:04:42;4.40;;;2.90;;
6280;SDS011;3173;48.204;11.612;2023-08-01T03:07:08;4.90;;;3.50;;
6280;SDS011;3173;48.204;11.612;2023-08-01T03:09:34;7.87;;;2.90;;
6280;SDS011;3173;48.204;11.612;2023-08-01T03:12:00;6.67;;;3.03;;
6280;SDS011;3173;48.204;11.612;2023-08-01T03:14:26;4.33;;;2.90;;
6280;SDS011;3173;48.204;11.612;2023-08-01T03:16:52;5.13;;;3.00;;
6280;SDS011;3173;48.204;11.612;2023-08-01T03:19:18;6.67;;;3.67;;
6280;SDS011;3173;48.204;11.612;2023-08-01T03:21:44;6.00;;;3.37;;
6280;SDS011;3173;48.204;11.612;2023-08-01T03:24:11;4.80;;;2.90;;
6280;SDS011;3173;48.204;11.612;2023-08-01T03:26:37;5.07;;;2.83;;
6280;SDS011;3173;48.204;11.612;2023-08-01T03:29:04;5.57;;;2.77;;
6280;SDS011;3173;48.204;11.612;2023-08-01T03:31:30;4.30;;;2.80;;
6280;SDS011;3173;48.204;11.612;2023-08-01T03:33:56;5.40;;;2.93;;
6280;SDS011;3173;48.204;11.612;2023-08-01T03:36:24;4.00;;;3.10;;
6280;SDS011;3173;48.204;11.612;2023-08-01T03:38:50;5.00;;;2.80;;
6280;SDS011;3173;48.204;11.612;2023-08-01T03:41:16;6.63;;;3.07;;
6280;SDS011;3173;48.204;11.612;2023-08-01T03:43:42;5.07;;;3.03;;
6280;SDS011;3173;48.204;11.612;2023-08-01T03:46:08;5.37;;;3.10;;
6280;SDS011;3173;48.204;11.612;2023-08-01T03:48:35;7.77;;;3.23;;
6280;SDS011;3173;48.204;11.612;2023-08-01T03:51:01;5.60;;;3.20;;
6280;SDS011;3173;48.204;11.612;2023-08-01T03:53:29;7.60;;;3.33;;
6280;SDS011;3173;48.204;11.612;2023-08-01T03:55:55;6.07;;;3.00;;
6280;SDS011;3173;48.204;11.612;2023-08-01T03:58:21;7.17;;;2.87;;
6280;SDS011;3173;48.204;11.612;2023-08-01T04:00:47;8.00;;;3.37;;
6280;SDS011;3173;48.204;11.612;2023-08-01T04:03:14;5.07;;;3.67;;
6280;SDS011;3173;48.204;11.612;2023-08-01T04:05:40;9.23;;;3.40;;
6280;SDS011;3173;48.204;11.612;2023-08-01T04:08:06;6.63;;;3.47;;
6280;SDS011;3173;48.204;11.612;2023-08-01T04:10:32;6.97;;;3.50;;
6280;SDS011;3173;48.204;11.612;2023-08-01T04:12:58;8.33;;;4.53;;
6280;SDS011;3173;48.204;11.612;2023-08-01T04:15:24;11.87;;;3.60;;
6280;SDS011;3173;48.204;11.612;2023-08-01T04:17:50;6.77;;;4.10;;
6280;SDS011;3173;48.204;11.612;2023-08-01T04:20:16;7.17;;;3.23;;
6280;SDS011;3173;48.204;11.612;2023-08-01T04:22:43;6.20;;;3.40;;
6280;SDS011;3173;48.204;11.612;2023-08-01T04:25:09;6.03;;;3.20;;
6280;SDS011;3173;48.204;11.612;2023-08-01T04:27:35;7.57;;;4.50;;
6280;SDS011;3173;48.204;11.612;2023-08-01T04:30:01;6.00;;;3.77;;
6280;SDS011;3173;48.204;11.612;2023-08-01T04:32:27;7.77;;;3.70;;
6280;SDS011;3173;48.204;11.612;2023-08-01T04:34:53;7.43;;;3.67;;
6280;SDS011;3173;48.204;11.612;2023-08-01T04:37:19;6.50;;;3.67;;
6280;SDS011;3173;48.204;11.612;2023-08-01T04:39:47;6.30;;;3.70;;
6280;SDS011;3173;48.204;11.612;2023-08-01T04:42:14;8.50;;;4.23;;
6280;SDS011;3173;48.204;11.612;2023-08-01T04:44:40;6.20;;;3.70;;
6280;SDS011;3173;48.204;11.612;2023-08-01T04:47:06;6.13;;;3.47;;
6280;SDS011;3173;48.204;11.612;2023-08-01T04:49:32;6.70;;;3.60;;
6280;SDS011;3173;48.204;11.612;2023-08-01T04:51:58;7.80;;;3.93;;
6280;SDS011;3173;48.204;11.612;2023-08-01T04:54:25;6.10;;;4.30;;
6280;SDS011;3173;48.204;11.612;2023-08-01T04:56:51;6.13;;;3.67;;
6280;SDS011;3173;48.204;11.612;2023-08-01T04:59:17;9.83;;;4.70;;
6280;SDS011;3173;48.204;11.612;2023-08-01T05:01:43;7.07;;;3.93;;
6280;SDS011;3173;48.204;11.612;2023-08-01T05:04:10;8.93;;;3.80;;
6280;SDS011;3173;48.204;11.612;2023-08-01T05:06:36;8.87;;;4.10;;
6280;SDS011;3173;48.204;11.612;2023-08-01T05:09:02;7.87;;;3.87;;
6280;SDS011;3173;48.204;11.612;2023-08-01T05:11:29;7.03;;;4.27;;
6280;SDS011;3173;48.204;11.612;2023-08-01T05:13:55;9.03;;;4.07;;
6280;SDS011;3173;48.204;11.612;2023-08-01T05:16:21;11.90;;;4.93;;
6280;SDS011;3173;48.204;11.612;2023-08-01T05:18:47;9.60;;;4.57;;
6280;SDS011;3173;48.204;11.612;2023-08-01T05:21:13;10.60;;;4.83;;
6280;SDS011;3173;48.204;11.612;2023-08-01T05:23:39;7.60;;;4.37;;
6280;SDS011;3173;48.204;11.612;2023-08-01T05:26:06;6.37;;;3.87;;
6280;SDS011;3173;48.204;11.612;2023-08-01T05:28:32;7.53;;;3.87;;
6280;SDS011;3173;48.204;11.612;2023-08-01T05:30:58;8.07;;;4.27;;
6280;SDS011;3173;48.204;11.612;2023-08-01T05:33:24;10.40;;;3.67;;
6280;SDS011;3173;48.204;11.612;2023-08-01T05:35:50;7.30;;;4.00;;
6280;SDS011;3173;48.204;11.612;2023-08-01T05:38:16;10.57;;;5.13;;
6280;SDS011;3173;48.204;11.612;2023-08-01T05:40:42;5.90;;;4.23;;
6280;SDS011;3173;48.204;11.612;2023-08-01T05:43:08;7.50;;;4.10;;
6280;SDS011;3173;48.204;11.612;2023-08-01T05:45:35;8.80;;;5.03;;
6280;SDS011;3173;48.204;11.612;2023-08-01T05:48:01;10.60;;;5.10;;
6280;SDS011;3173;48.204;11.612;2023-08-01T05:50:27;6.77;;;3.80;;
6280;SDS011;3173;48.204;11.612;2023-08-01T05:52:54;8.90;;;4.37;;
6280;SDS011;3173;48.204;11.612;2023-08-01T05:55:20;6.20;;;3.90;;
6280;SDS011;3173;48.204;11.612;2023-08-01T05:57:46;8.17;;;4.40;;
6280;SDS011;3173;48.204;11.612;2023-08-01T06:00:14;7.40;;;3.53;;
6280;SDS011;3173;48.204;11.612;2023-08-01T06:02:40;8.70;;;4.33;;
6280;SDS011;3173;48.204;11.612;2023-08-01T06:05:07;10.03;;;3.90;;
6280;SDS011;3173;48.204;11.612;2023-08-01T06:07:33;8.30;;;4.30;;
6280;SDS011;3173;48.204;11.612;2023-08-01T06:09:59;8.27;;;4.67;;
6280;SDS011;3173;48.204;11.612;2023-08-01T06:12:25;5.40;;;3.50;;
6280;SDS011;3173;48.204;11.612;2023-08-01T06:14:51;6.23;;;3.93;;
6280;SDS011;3173;48.204;11.612;2023-08-01T06:17:17;9.67;;;4.40;;
6280;SDS011;3173;48.204;11.612;2023-08-01T06:19:43;7.27;;;3.80;;
6280;SDS011;3173;48.204;11.612;2023-08-01T06:22:10;7.47;;;4.13;;
6280;SDS011;3173;48.204;11.612;2023-08-01T06:24:36;7.43;;;4.30;;
6280;SDS011;3173;48.204;11.612;2023-08-01T06:27:02;11.23;;;4.30;;
6280;SDS011;3173;48.204;11.612;2023-08-01T06:29:28;11.50;;;4.83;;
6280;SDS011;3173;48.204;11.612;2023-08-01T06:31:54;5.83;;;3.27;;
6280;SDS011;3173;48.204;11.612;2023-08-01T06:34:20;8.60;;;3.93;;
6280;SDS011;3173;48.204;11.612;2023-08-01T06:36:46;9.07;;;4.00;;
6280;SDS011;3173;48.204;11.612;2023-08-01T06:39:13;5.60;;;3.40;;
6280;SDS011;3173;48.204;11.612;2023-08-01T06:41:39;7.47;;;3.50;;
6280;SDS011;3173;48.204;11.612;2023-08-01T06:44:05;8.30;;;4.00;;
6280;SDS011;3173;48.204;11.612;2023-08-01T06:46:31;5.63;;;3.33;;
6280;SDS011;3173;48.204;11.612;2023-08-01T06:48:57;10.93;;;3.37;;
6280;SDS011;3173;48.204;11.612;2023-08-01T06:51:23;12.40;;;3.77;;
6280;SDS011;3173;48.204;11.612;2023-08-01T06:53:50;6.43;;;3.30;;
6280;SDS011;3173;48.204;11.612;2023-08-01T06:56:16;8.97;;;3.87;;
6280;SDS011;3173;48.204;11.612;2023-08-01T06:58:42;5.93;;;3.07;;
6280;SDS011;3173;48.204;11.612;2023-08-01T07:01:08;5.60;;;3.13;;
6280;SDS011;3173;48.204;11.612;2023-08-01T07:03:34;5.00;;;2.90;;
6280;SDS011;3173;48.204;11.612;2023-08-01T07:06:00;7.27;;;3.33;;
6280;SDS011;3173;48.204;11.612;2023-08-01T07:08:26;5.30;;;2.87;;
6280;SDS011;3173;48.204;11.612;2023-08-01T07:10:52;4.53;;;2.70;;
6280;SDS011;3173;48.204;11.612;2023-08-01T07:13:18;11.10;;;3.60;;
6280;SDS011;3173;48.204;11.612;2023-08-01T07:15:45;7.37;;;3.20;;
6280;SDS011;3173;48.204;11.612;2023-08-01T07:18:11;6.80;;;3.40;;
6280;SDS011;3173;48.204;11.612;2023-08-01T07:20:37;7.10;;;3.00;;
6280;SDS011;3173;48.204;11.612;2023-08-01T07:23:03;7.90;;;3.07;;
6280;SDS011;3173;48.204;11.612;2023-08-01T07:25:29;4.20;;;2.77;;
6280;SDS011;3173;48.204;11.612;2023-08-01T07:27:55;6.73;;;3.40;;
6280;SDS011;3173;48.204;11.612;2023-08-01T07:30:21;6.67;;;3.70;;
6280;SDS011;3173;48.204;11.612;2023-08-01T07:32:47;5.40;;;3.00;;
6280;SDS011;3173;48.204;11.612;2023-08-01T07:35:13;6.93;;;3.27;;
6280;SDS011;3173;48.204;11.612;2023-08-01T07:37:40;5.20;;;2.63;;
6280;SDS011;3173;48.204;11.612;2023-08-01T07:40:06;4.47;;;2.70;;
6280;SDS011;3173;48.204;11.612;2023-08-01T07:42:32;7.53;;;3.30;;
6280;SDS011;3173;48.204;11.612;2023-08-01T07:44:58;6.40;;;3.50;;
6280;SDS011;3173;48.204;11.612;2023-08-01T07:47:24;5.90;;;2.83;;
6280;SDS011;3173;48.204;11.612;2023-08-01T07:49:51;5.50;;;3.07;;
6280;SDS011;3173;48.204;11.612;2023-08-01T07:52:17;4.90;;;2.50;;
6280;SDS011;3173;48.204;11.612;2023-08-01T07:54:43;7.27;;;2.67;;
6280;SDS011;3173;48.204;11.612;2023-08-01T07:57:09;4.97;;;2.60;;
6280;SDS011;3173;48.204;11.612;2023-08-01T07:59:35;5.43;;;2.50;;
6280;SDS011;3173;48.204;11.612;2023-08-01T08:02:02;6.03;;;2.57;;
6280;SDS011;3173;48.204;11.612;2023-08-01T08:04:28;5.40;;;2.40;;
6280;SDS011;3173;48.204;11.612;2023-08-01T08:06:54;6.10;;;2.50;;
6280;SDS011;3173;48.204;11.612;2023-08-01T08:09:24;5.63;;;2.80;;
6280;SDS011;3173;48.204;11.612;2023-08-01T08:11:51;5.67;;;2.43;;
6280;SDS011;3173;48.204;11.612;2023-08-01T08:14:17;4.90;;;3.03;;
6280;SDS011;3173;48.204;11.612;2023-08-01T08:16:45;5.20;;;3.00;;
6280;SDS011;3173;48.204;11.612;2023-08-01T08:19:11;6.63;;;3.37;;
6280;SDS011;3173;48.204;11.612;2023-08-01T08:21:38;6.63;;;2.70;;
6280;SDS011;3173;48.204;11.612;2023-08-01T08:24:04;5.73;;;2.90;;
6280;SDS011;3173;48.204;11.612;2023-08-01T08:26:30;5.50;;;2.57;;
6280;SDS011;3173;48.204;11.612;2023-08-01T08:28:59;5.70;;;2.67;;
6280;SDS011;3173;48.204;11.612;2023-08-01T08:31:25;5.53;;;3.10;;
6280;SDS011;3173;48.204;11.612;2023-08-01T08:33:51;6.20;;;3.00;;
6280;SDS011;3173;48.204;11.612;2023-08-01T08:36:17;4.40;;;2.70;;
6280;SDS011;3173;48.204;11.612;2023-08-01T08:38:43;4.37;;;2.40;;
6280;SDS011;3173;48.204;11.612;2023-08-01T08:41:10;3.67;;;2.30;;
6280;SDS011;3173;48.204;11.612;2023-08-01T08:43:36;6.23;;;2.80;;
6280;SDS011;3173;48.204;11.612;2023-08-01T08:46:03;4.97;;;2.77;;
6280;SDS011;3173;48.204;11.612;2023-08-01T08:48:30;4.63;;;2.80;;
6280;SDS011;3173;48.204;11.612;2023-08-01T08:50:57;5.90;;;2.50;;
6280;SDS011;3173;48.204;11.612;2023-08-01T08:53:24;4.30;;;2.47;;
6280;SDS011;3173;48.204;11.612;2023-08-01T08:55:51;4.80;;;2.43;;
6280;SDS011;3173;48.204;11.612;2023-08-01T08:58:17;5.20;;;3.00;;
6280;SDS011;3173;48.204;11.612;2023-08-01T09:00:44;5.73;;;2.47;;
6280;SDS011;3173;48.204;11.612;2023-08-01T09:03:10;5.50;;;2.50;;
6280;SDS011;3173;48.204;11.612;2023-08-01T09:05:40;4.10;;;2.60;;
6280;SDS011;3173;48.204;11.612;2023-08-01T09:08:13;8.73;;;2.80;;
6280;SDS011;3173;48.204;11.612;2023-08-01T09:10:41;4.20;;;2.70;;
6280;SDS011;3173;48.204;11.612;2023-08-01T09:13:07;4.30;;;2.30;;
6280;SDS011;3173;48.204;11.612;2023-08-01T09:15:34;6.23;;;2.83;;
6280;SDS011;3173;48.204;11.612;2023-08-01T09:18:01;15.07;;;3.80;;
6280;SDS011;3173;48.204;11.612;2023-08-01T09:20:39;4.07;;;2.70;;
6280;SDS011;3173;48.204;11.612;2023-08-01T09:23:08;5.30;;;2.53;;
6280;SDS011;3173;48.204;11.612;2023-08-01T09:25:34;5.90;;;2.47;;
6280;SDS011;3173;48.204;11.612;2023-08-01T09:28:01;4.73;;;2.27;;
6280;SDS011;3173;48.204;11.612;2023-08-01T09:30:27;7.70;;;3.30;;
6280;SDS011;3173;48.204;11.612;2023-08-01T09:32:53;6.60;;;2.73;;
6280;SDS011;3173;48.204;11.612;2023-08-01T09:35:20;3.47;;;2.40;;
6280;SDS011;3173;48.204;11.612;2023-08-01T09:37:46;5.27;;;3.13;;
6280;SDS011;3173;48.204;11.612;2023-08-01T09:40:13;5.93;;;2.53;;
6280;SDS011;3173;48.204;11.612;2023-08-01T09:42:43;7.80;;;3.17;;
6280;SDS011;3173;48.204;11.612;2023-08-01T09:45:16;5.37;;;2.80;;
6280;SDS011;3173;48.204;11.612;2023-08-01T09:47:42;6.20;;;3.10;;
6280;SDS011;3173;48.204;11.612;2023-08-01T09:50:09;5.97;;;2.87;;
6280;SDS011;3173;48.204;11.612;2023-08-01T09:52:40;4.10;;;2.67;;
6280;SDS011;3173;48.204;11.612;2023-08-01T09:55:07;4.40;;;2.73;;
6280;SDS011;3173;48.204;11.612;2023-08-01T09:57:33;6.70;;;3.70;;
6280;SDS011;3173;48.204;11.612;2023-08-01T10:00:03;4.77;;;2.87;;
6280;SDS011;3173;48.204;11.612;2023-08-01T10:02:29;6.43;;;3.10;;
6280;SDS011;3173;48.204;11.612;2023-08-01T10:05:00;7.50;;;3.20;;
6280;SDS011;3173;48.204;11.612;2023-08-01T10:07:28;4.67;;;3.10;;
6280;SDS011;3173;48.204;11.612;2023-08-01T10:09:57;7.67;;;2.37;;
6280;SDS011;3173;48.204;11.612;2023-08-01T10:12:24;11.00;;;2.90;;
6280;SDS011;3173;48.204;11.612;2023-08-01T10:14:51;8.90;;;3.00;;
6280;SDS011;3173;48.204;11.612;2023-08-01T10:17:18;12.13;;;3.20;;
6280;SDS011;3173;48.204;11.612;2023-08-01T10:19:45;5.07;;;3.33;;
6280;SDS011;3173;48.204;11.612;2023-08-01T10:22:12;6.20;;;2.73;;
6280;SDS011;3173;48.204;11.612;2023-08-01T10:24:39;5.70;;;2.57;;
6280;SDS011;3173;48.204;11.612;2023-08-01T10:27:10;5.60;;;3.13;;
6280;SDS011;3173;48.204;11.612;2023-08-01T10:29:37;4.70;;;2.90;;
6280;SDS011;3173;48.204;11.612;2023-08-01T10:32:03;9.30;;;2.87;;
6280;SDS011;3173;48.204;11.612;2023-08-01T10:34:32;7.90;;;2.90;;
6280;SDS011;3173;48.204;11.612;2023-08-01T10:36:58;5.33;;;3.50;;
6280;SDS011;3173;48.204;11.612;2023-08-01T10:39:25;7.37;;;3.10;;
6280;SDS011;3173;48.204;11.612;2023-08-01T10:44:24;4.87;;;3.10;;
6280;SDS011;3173;48.204;11.612;2023-08-01T10:46:58;4.60;;;2.77;;
6280;SDS011;3173;48.204;11.612;2023-08-01T10:49:34;6.37;;;3.23;;
6280;SDS011;3173;48.204;11.612;2023-08-01T10:52:01;6.50;;;2.73;;
6280;SDS011;3173;48.204;11.612;2023-08-01T10:54:27;5.90;;;2.40;;
6280;SDS011;3173;48.204;11.612;2023-08-01T10:56:54;6.53;;;2.83;;
6280;SDS011;3173;48.204;11.612;2023-08-01T10:59:21;7.30;;;2.90;;
6280;SDS011;3173;48.204;11.612;2023-08-01T11:01:49;5.23;;;2.83;;
6280;SDS011;3173;48.204;11.612;2023-08-01T11:06:43;5.77;;;2.67;;
6280;SDS011;3173;48.204;11.612;2023-08-01T11:09:22;4.90;;;2.50;;
6280;SDS011;3173;48.204;11.612;2023-08-01T11:11:58;4.47;;;2.80;;
6280;SDS011;3173;48.204;11.612;2023-08-01T11:14:26;4.60;;;2.63;;
6280;SDS011;3173;48.204;11.612;2023-08-01T11:16:55;5.93;;;2.83;;
6280;SDS011;3173;48.204;11.612;2023-08-01T11:19:22;5.50;;;2.57;;
6280;SDS011;3173;48.204;11.612;2023-08-01T11:21:49;3.70;;;2.13;;
6280;SDS011;3173;48.204;11.612;2023-08-01T11:24:17;4.90;;;2.23;;
6280;SDS011;3173;48.204;11.612;2023-08-01T11:26:44;5.17;;;2.57;;
6280;SDS011;3173;48.204;11.612;2023-08-01T11:29:11;4.60;;;2.50;;
6280;SDS011;3173;48.204;11.612;2023-08-01T11:31:37;2.80;;;1.83;;
6280;SDS011;3173;48.204;11.612;2023-08-01T11:34:03;3.63;;;1.97;;
6280;SDS011;3173;48.204;11.612;2023-08-01T11:36:31;2.60;;;1.57;;
6280;SDS011;3173;48.204;11.612;2023-08-01T11:38:57;4.10;;;1.60;;
6280;SDS011;3173;48.204;11.612;2023-08-01T11:41:25;2.67;;;1.83;;
6280;SDS011;3173;48.204;11.612;2023-08-01T11:43:52;4.77;;;2.13;;
6280;SDS011;3173;48.204;11.612;2023-08-01T11:46:22;4.87;;;2.30;;
6280;SDS011;3173;48.204;11.612;2023-08-01T11:48:48;3.63;;;1.93;;
6280;SDS011;3173;48.204;11.612;2023-08-01T11:51:15;3.73;;;2.10;;
6280;SDS011;3173;48.204;11.612;2023-08-01T11:53:41;4.70;;;2.37;;
6280;SDS011;3173;48.204;11.612;2023-08-01T11:56:08;4.20;;;2.37;;
6280;SDS011;3173;48.204;11.612;2023-08-01T11:58:35;4.67;;;2.00;;
6280;SDS011;3173;48.204;11.612;2023-08-01T12:01:05;3.50;;;2.30;;
6280;SDS011;3173;48.204;11.612;2023-08-01T12:03:32;5.13;;;2.23;;
6280;SDS011;3173;48.204;11.612;2023-08-01T12:06:05;5.70;;;2.80;;
6280;SDS011;3173;48.204;11.612;2023-08-01T12:08:36;3.10;;;1.97;;
6280;SDS011;3173;48.204;11.612;2023-08-01T12:11:02;4.93;;;2.20;;
6280;SDS011;3173;48.204;11.612;2023-08-01T12:13:29;5.23;;;2.87;;
6280;SDS011;3173;48.204;11.612;2023-08-01T12:15:56;3.50;;;2.30;;
6280;SDS011;3173;48.204;11.612;2023-08-01T12:18:26;6.97;;;3.40;;
6280;SDS011;3173;48.204;11.612;2023-08-01T12:20:53;4.77;;;2.63;;
6280;SDS011;3173;48.204;11.612;2023-08-01T12:23:19;4.50;;;2.60;;
6280;SDS011;3173;48.204;11.612;2023-08-01T12:25:46;4.50;;;2.50;;
6280;SDS011;3173;48.204;11.612;2023-08-01T12:28:13;4.27;;;2.60;;
6280;SDS011;3173;48.204;11.612;2023-08-01T12:30:40;5.53;;;2.43;;
6280;SDS011;3173;48.204;11.612;2023-08-01T12:33:06;3.70;;;2.30;;
6280;SDS011;3173;48.204;11.612;2023-08-01T12:35:33;5.03;;;2.10;;
6280;SDS011;3173;48.204;11.612;2023-08-01T12:37:59;3.97;;;2.10;;
6280;SDS011;3173;48.204;11.612;2023-08-01T12:40:25;5.13;;;2.70;;
6280;SDS011;3173;48.204;11.612;2023-08-01T12:42:51;3.10;;;2.07;;
6280;SDS011;3173;48.204;11.612;2023-08-01T12:45:18;4.00;;;2.37;;
6280;SDS011;3173;48.204;11.612;2023-08-01T12:47:44;3.40;;;2.40;;
6280;SDS011;3173;48.204;11.612;2023-08-01T12:50:10;4.70;;;2.57;;
6280;SDS011;3173;48.204;11.612;2023-08-01T12:52:36;5.30;;;2.07;;
6280;SDS011;3173;48.204;11.612;2023-08-01T12:55:02;3.50;;;2.03;;
6280;SDS011;3173;48.204;11.612;2023-08-01T12:57:28;5.83;;;2.10;;
6280;SDS011;3173;48.204;11.612;2023-08-01T12:59:54;3.47;;;1.83;;
6280;SDS011;3173;48.204;11.612;2023-08-01T13:02:20;3.37;;;2.03;;
6280;SDS011;3173;48.204;11.612;2023-08-01T13:04:47;3.33;;;2.07;;
6280;SDS011;3173;48.204;11.612;2023-08-01T13:07:13;4.47;;;2.00;;
6280;SDS011;3173;48.204;11.612;2023-08-01T13:09:39;2.87;;;2.00;;
6280;SDS011;3173;48.204;11.612;2023-08-01T13:12:05;3.20;;;2.00;;
6280;SDS011;3173;48.204;11.612;2023-08-01T13:14:31;2.80;;;1.70;;
6280;SDS011;3173;48.204;11.612;2023-08-01T13:16:58;6.43;;;2.00;;
6280;SDS011;3173;48.204;11.612;2023-08-01T13:19:25;2.97;;;1.70;;
6280;SDS011;3173;48.204;11.612;2023-08-01T13:21:51;2.80;;;1.70;;
6280;SDS011;3173;48.204;11.612;2023-08-01T13:24:17;2.43;;;1.60;;
6280;SDS011;3173;48.204;11.612;2023-08-01T13:26:43;3.37;;;1.70;;
6280;SDS011;3173;48.204;11.612;2023-08-01T13:29:09;3.23;;;1.80;;
6280;SDS011;3173;48.204;11.612;2023-08-01T13:31:35;2.73;;;1.60;;
6280;SDS011;3173;48.204;11.612;2023-08-01T13:34:01;3.67;;;2.03;;
6280;SDS011;3173;48.204;11.612;2023-08-01T13:36:27;5.27;;;1.87;;
6280;SDS011;3173;48.204;11.612;2023-08-01T13:38:53;5.27;;;2.07;;
6280;SDS011;3173;48.204;11.612;2023-08-01T13:41:20;9.00;;;2.03;;
6280;SDS011;3173;48.204;11.612;2023-08-01T13:43:46;4.60;;;1.73;;
6280;SDS011;3173;48.204;11.612;2023-08-01T13:46:13;2.67;;;1.70;;
6280;SDS011;3173;48.204;11.612;2023-08-01T13:48:40;4.53;;;1.90;;
6280;SDS011;3173;48.204;11.612;2023-08-01T13:51:06;4.03;;;1.60;;
6280;SDS011;3173;48.204;11.612;2023-08-01T13:53:32;6.40;;;2.07;;
6280;SDS011;3173;48.204;11.612;2023-08-01T13:55:59;3.40;;;1.80;;
6280;SDS011;3173;48.204;11.612;2023-08-01T13:58:25;3.60;;;2.03;;
6280;SDS011;3173;48.204;11.612;2023-08-01T14:00:51;2.50;;;1.70;;
6280;SDS011;3173;48.204;11.612;2023-08-01T14:03:17;3.10;;;1.77;;
6280;SDS011;3173;48.204;11.612;2023-08-01T14:05:43;3.07;;;1.40;;
6280;SDS011;3173;48.204;11.612;2023-08-01T14:08:10;3.43;;;2.37;;
6280;SDS011;3173;48.204;11.612;2023-08-01T14:10:36;2.80;;;1.93;;
6280;SDS011;3173;48.204;11.612;2023-08-01T14:13:02;2.87;;;2.20;;
6280;SDS011;3173;48.204;11.612;2023-08-01T14:15:29;3.20;;;2.03;;
6280;SDS011;3173;48.204;11.612;2023-08-01T14:17:55;4.60;;;2.20;;
6280;SDS011;3173;48.204;11.612;2023-08-01T14:20:21;5.00;;;2.20;;
6280;SDS011;3173;48.204;11.612;2023-08-01T14:22:47;10.80;;;3.10;;
6280;SDS011;3173;48.204;11.612;2023-08-01T14:25:13;3.20;;;1.70;;
6280;SDS011;3173;48.204;11.612;2023-08-01T14:27:39;3.97;;;1.90;;
6280;SDS011;3173;48.204;11.612;2023-08-01T14:30:05;3.70;;;2.10;;
6280;SDS011;3173;48.204;11.612;2023-08-01T14:32:32;6.40;;;2.20;;
6280;SDS011;3173;48.204;11.612;2023-08-01T14:34:58;2.53;;;1.60;;
6280;SDS011;3173;48.204;11.612;2023-08-01T14:37:24;4.37;;;1.30;;
6280;SDS011;3173;48.204;11.612;2023-08-01T14:39:51;3.63;;;1.60;;
6280;SDS011;3173;48.204;11.612;2023-08-01T14:42:17;3.77;;;1.40;;
6280;SDS011;3173;48.204;11.612;2023-08-01T14:44:43;3.20;;;1.43;;
6280;SDS011;3173;48.204;11.612;2023-08-01T14:47:09;3.13;;;1.10;;
6280;SDS011;3173;48.204;11.612;2023-08-01T14:49:35;2.70;;;1.10;;
6280;SDS011;3173;48.204;11.612;2023-08-01T14:52:02;2.63;;;1.13;;
6280;SDS011;3173;48.204;11.612;2023-08-01T14:54:28;1.90;;;1.20;;
6280;SDS011;3173;48.204;11.612;2023-08-01T14:56:55;3.57;;;1.30;;
6280;SDS011;3173;48.204;11.612;2023-08-01T14:59:22;2.13;;;1.10;;
6280;SDS011;3173;48.204;11.612;2023-08-01T15:01:48;2.13;;;1.00;;